sensor_id;sensor_type;location;lat;lon;timestamp;P1;durP1;ratioP1;P2;durP2;ratioP2
65202;SDS011;51788;45.124;38.966;2022-09-01T00:00:47;28.48;;;11.02;;
65202;SDS011;51788;45.124;38.966;2022-09-01T00:03:18;33.60;;;11.35;;
65202;SDS011;51788;45.124;38.966;2022-09-01T00:05:48;22.27;;;10.52;;
65202;SDS011;51788;45.124;38.966;2022-09-01T00:08:19;27.13;;;10.32;;
65202;SDS011;51788;45.124;38.966;2022-09-01T00:10:46;29.02;;;11.68;;
65202;SDS011;51788;45.124;38.966;2022-09-01T00:13:13;24.25;;;11.43;;
65202;SDS011;51788;45.124;38.966;2022-09-01T00:15:39;26.00;;;11.43;;
65202;SDS011;51788;45.124;38.966;2022-09-01T00:18:05;18.02;;;9.82;;
65202;SDS011;51788;45.124;38.966;2022-09-01T00:20:31;18.88;;;11.57;;
65202;SDS011;51788;45.124;38.966;2022-09-01T00:22:57;24.95;;;11.07;;
65202;SDS011;51788;45.124;38.966;2022-09-01T00:25:26;18.25;;;11.13;;
65202;SDS011;51788;45.124;38.966;2022-09-01T00:27:52;21.27;;;11.85;;
65202;SDS011;51788;45.124;38.966;2022-09-01T00:30:20;25.95;;;10.73;;
65202;SDS011;51788;45.124;38.966;2022-09-01T00:32:46;23.80;;;11.90;;
65202;SDS011;51788;45.124;38.966;2022-09-01T00:35:13;20.85;;;11.43;;
65202;SDS011;51788;45.124;38.966;2022-09-01T00:37:40;18.33;;;10.63;;
65202;SDS011;51788;45.124;38.966;2022-09-01T00:40:07;20.05;;;11.38;;
65202;SDS011;51788;45.124;38.966;2022-09-01T00:42:36;20.48;;;11.77;;
65202;SDS011;51788;45.124;38.966;2022-09-01T00:45:04;17.70;;;11.90;;
65202;SDS011;51788;45.124;38.966;2022-09-01T00:47:32;24.08;;;11.25;;
65202;SDS011;51788;45.124;38.966;2022-09-01T00:50:00;21.83;;;11.52;;
65202;SDS011;51788;45.124;38.966;2022-09-01T00:52:36;23.58;;;10.82;;
65202;SDS011;51788;45.124;38.966;2022-09-01T00:55:12;24.58;;;11.70;;
65202;SDS011;51788;45.124;38.966;2022-09-01T00:57:42;24.58;;;11.57;;
65202;SDS011;51788;45.124;38.966;2022-09-01T01:00:12;20.05;;;12.02;;
65202;SDS011;51788;45.124;38.966;2022-09-01T01:02:46;19.85;;;11.82;;
65202;SDS011;51788;45.124;38.966;2022-09-01T01:05:13;14.00;;;11.68;;
65202;SDS011;51788;45.124;38.966;2022-09-01T01:07:40;25.52;;;11.25;;
65202;SDS011;51788;45.124;38.966;2022-09-01T01:10:11;24.40;;;11.87;;
65202;SDS011;51788;45.124;38.966;2022-09-01T01:12:40;44.65;;;11.70;;
65202;SDS011;51788;45.124;38.966;2022-09-01T01:15:12;27.13;;;11.50;;
65202;SDS011;51788;45.124;38.966;2022-09-01T01:17:38;16.67;;;10.93;;
65202;SDS011;51788;45.124;38.966;2022-09-01T01:20:06;27.05;;;12.00;;
65202;SDS011;51788;45.124;38.966;2022-09-01T01:22:55;14.05;;;11.13;;
65202;SDS011;51788;45.124;38.966;2022-09-01T01:28:25;23.67;;;11.60;;
65202;SDS011;51788;45.124;38.966;2022-09-01T01:30:57;20.60;;;11.20;;
65202;SDS011;51788;45.124;38.966;2022-09-01T01:33:37;17.08;;;11.52;;
65202;SDS011;51788;45.124;38.966;2022-09-01T01:36:12;29.42;;;11.65;;
65202;SDS011;51788;45.124;38.966;2022-09-01T01:39:07;22.23;;;12.05;;
65202;SDS011;51788;45.124;38.966;2022-09-01T01:41:37;21.65;;;12.43;;
65202;SDS011;51788;45.124;38.966;2022-09-01T01:44:05;28.45;;;12.05;;
65202;SDS011;51788;45.124;38.966;2022-09-01T01:46:33;19.70;;;12.68;;
65202;SDS011;51788;45.124;38.966;2022-09-01T01:49:01;30.55;;;12.07;;
65202;SDS011;51788;45.124;38.966;2022-09-01T01:51:29;29.85;;;12.45;;
65202;SDS011;51788;45.124;38.966;2022-09-01T01:53:58;19.58;;;12.52;;
65202;SDS011;51788;45.124;38.966;2022-09-01T01:56:30;28.13;;;12.38;;
65202;SDS011;51788;45.124;38.966;2022-09-01T01:59:00;39.67;;;12.98;;
65202;SDS011;51788;45.124;38.966;2022-09-01T02:01:28;34.17;;;12.65;;
65202;SDS011;51788;45.124;38.966;2022-09-01T02:03:58;30.83;;;12.50;;
65202;SDS011;51788;45.124;38.966;2022-09-01T02:06:25;25.00;;;11.95;;
65202;SDS011;51788;45.124;38.966;2022-09-01T02:08:55;23.60;;;12.85;;
65202;SDS011;51788;45.124;38.966;2022-09-01T02:11:23;23.70;;;11.52;;
65202;SDS011;51788;45.124;38.966;2022-09-01T02:13:54;18.45;;;11.68;;
65202;SDS011;51788;45.124;38.966;2022-09-01T02:16:28;25.73;;;12.70;;
65202;SDS011;51788;45.124;38.966;2022-09-01T02:18:56;24.73;;;12.02;;
65202;SDS011;51788;45.124;38.966;2022-09-01T02:21:23;19.60;;;12.70;;
65202;SDS011;51788;45.124;38.966;2022-09-01T02:23:52;20.33;;;11.88;;
65202;SDS011;51788;45.124;38.966;2022-09-01T02:26:31;26.70;;;11.45;;
65202;SDS011;51788;45.124;38.966;2022-09-01T02:29:00;17.02;;;12.02;;
65202;SDS011;51788;45.124;38.966;2022-09-01T02:31:33;23.15;;;12.25;;
65202;SDS011;51788;45.124;38.966;2022-09-01T02:34:03;23.95;;;11.63;;
65202;SDS011;51788;45.124;38.966;2022-09-01T02:36:42;32.10;;;12.02;;
65202;SDS011;51788;45.124;38.966;2022-09-01T02:39:24;36.95;;;12.23;;
65202;SDS011;51788;45.124;38.966;2022-09-01T02:41:54;26.63;;;12.52;;
65202;SDS011;51788;45.124;38.966;2022-09-01T02:44:26;23.98;;;11.73;;
65202;SDS011;51788;45.124;38.966;2022-09-01T02:46:54;18.10;;;12.73;;
65202;SDS011;51788;45.124;38.966;2022-09-01T02:49:22;27.95;;;11.93;;
65202;SDS011;51788;45.124;38.966;2022-09-01T02:51:53;26.02;;;12.88;;
65202;SDS011;51788;45.124;38.966;2022-09-01T02:54:22;17.55;;;12.18;;
65202;SDS011;51788;45.124;38.966;2022-09-01T02:56:50;27.83;;;13.07;;
65202;SDS011;51788;45.124;38.966;2022-09-01T02:59:23;24.17;;;12.23;;
65202;SDS011;51788;45.124;38.966;2022-09-01T03:01:53;18.17;;;11.65;;
65202;SDS011;51788;45.124;38.966;2022-09-01T03:04:19;15.77;;;12.02;;
65202;SDS011;51788;45.124;38.966;2022-09-01T03:06:46;30.33;;;12.10;;
65202;SDS011;51788;45.124;38.966;2022-09-01T03:09:15;20.80;;;11.82;;
65202;SDS011;51788;45.124;38.966;2022-09-01T03:11:45;33.90;;;13.63;;
65202;SDS011;51788;45.124;38.966;2022-09-01T03:14:14;26.42;;;12.63;;
65202;SDS011;51788;45.124;38.966;2022-09-01T03:16:41;18.33;;;12.38;;
65202;SDS011;51788;45.124;38.966;2022-09-01T03:19:07;18.90;;;12.30;;
65202;SDS011;51788;45.124;38.966;2022-09-01T03:21:35;28.90;;;12.10;;
65202;SDS011;51788;45.124;38.966;2022-09-01T03:24:04;26.52;;;13.40;;
65202;SDS011;51788;45.124;38.966;2022-09-01T03:26:30;35.70;;;12.65;;
65202;SDS011;51788;45.124;38.966;2022-09-01T03:28:56;23.02;;;12.77;;
65202;SDS011;51788;45.124;38.966;2022-09-01T03:31:23;34.92;;;12.57;;
65202;SDS011;51788;45.124;38.966;2022-09-01T03:33:53;30.25;;;12.18;;
65202;SDS011;51788;45.124;38.966;2022-09-01T03:36:26;32.35;;;14.20;;
65202;SDS011;51788;45.124;38.966;2022-09-01T03:38:53;26.02;;;13.00;;
65202;SDS011;51788;45.124;38.966;2022-09-01T03:41:21;24.40;;;13.02;;
65202;SDS011;51788;45.124;38.966;2022-09-01T03:43:49;40.05;;;13.43;;
65202;SDS011;51788;45.124;38.966;2022-09-01T03:46:20;29.02;;;13.10;;
65202;SDS011;51788;45.124;38.966;2022-09-01T03:48:48;32.92;;;14.75;;
65202;SDS011;51788;45.124;38.966;2022-09-01T03:51:16;19.45;;;11.70;;
65202;SDS011;51788;45.124;38.966;2022-09-01T03:53:44;22.17;;;12.07;;
65202;SDS011;51788;45.124;38.966;2022-09-01T03:56:10;27.98;;;12.48;;
65202;SDS011;51788;45.124;38.966;2022-09-01T03:58:38;35.25;;;11.73;;
65202;SDS011;51788;45.124;38.966;2022-09-01T04:01:08;24.65;;;11.35;;
65202;SDS011;51788;45.124;38.966;2022-09-01T04:03:37;20.00;;;11.02;;
65202;SDS011;51788;45.124;38.966;2022-09-01T04:06:04;31.52;;;11.50;;
65202;SDS011;51788;45.124;38.966;2022-09-01T04:08:33;28.35;;;11.65;;
65202;SDS011;51788;45.124;38.966;2022-09-01T04:11:02;30.13;;;12.52;;
65202;SDS011;51788;45.124;38.966;2022-09-01T04:13:36;32.55;;;12.23;;
65202;SDS011;51788;45.124;38.966;2022-09-01T04:16:04;24.70;;;11.75;;
65202;SDS011;51788;45.124;38.966;2022-09-01T04:18:50;26.20;;;11.60;;
65202;SDS011;51788;45.124;38.966;2022-09-01T04:21:16;32.22;;;11.10;;
65202;SDS011;51788;45.124;38.966;2022-09-01T04:23:44;25.38;;;12.07;;
65202;SDS011;51788;45.124;38.966;2022-09-01T04:26:13;19.40;;;11.30;;
65202;SDS011;51788;45.124;38.966;2022-09-01T04:31:19;24.35;;;11.52;;
65202;SDS011;51788;45.124;38.966;2022-09-01T04:33:49;21.45;;;12.57;;
65202;SDS011;51788;45.124;38.966;2022-09-01T04:36:23;35.80;;;14.53;;
65202;SDS011;51788;45.124;38.966;2022-09-01T04:38:53;37.05;;;14.63;;
65202;SDS011;51788;45.124;38.966;2022-09-01T04:43:52;31.27;;;14.75;;
65202;SDS011;51788;45.124;38.966;2022-09-01T04:46:22;46.35;;;16.95;;
65202;SDS011;51788;45.124;38.966;2022-09-01T04:48:53;43.35;;;17.52;;
65202;SDS011;51788;45.124;38.966;2022-09-01T04:51:20;46.85;;;16.95;;
65202;SDS011;51788;45.124;38.966;2022-09-01T04:56:21;41.13;;;15.20;;
65202;SDS011;51788;45.124;38.966;2022-09-01T04:59:15;39.15;;;14.77;;
65202;SDS011;51788;45.124;38.966;2022-09-01T05:01:48;42.42;;;13.07;;
65202;SDS011;51788;45.124;38.966;2022-09-01T05:04:17;26.70;;;12.77;;
65202;SDS011;51788;45.124;38.966;2022-09-01T05:06:46;33.28;;;12.95;;
65202;SDS011;51788;45.124;38.966;2022-09-01T05:09:16;22.13;;;13.07;;
65202;SDS011;51788;45.124;38.966;2022-09-01T05:12:06;23.73;;;11.63;;
65202;SDS011;51788;45.124;38.966;2022-09-01T05:14:41;39.83;;;12.05;;
65202;SDS011;51788;45.124;38.966;2022-09-01T05:17:11;27.88;;;11.85;;
65202;SDS011;51788;45.124;38.966;2022-09-01T05:19:38;42.72;;;11.57;;
65202;SDS011;51788;45.124;38.966;2022-09-01T05:22:06;26.20;;;12.05;;
65202;SDS011;51788;45.124;38.966;2022-09-01T05:27:05;30.73;;;11.00;;
65202;SDS011;51788;45.124;38.966;2022-09-01T05:29:36;33.88;;;11.35;;
65202;SDS011;51788;45.124;38.966;2022-09-01T05:32:06;32.63;;;10.80;;
65202;SDS011;51788;45.124;38.966;2022-09-01T05:34:37;32.70;;;9.80;;
65202;SDS011;51788;45.124;38.966;2022-09-01T05:37:06;33.33;;;10.93;;
65202;SDS011;51788;45.124;38.966;2022-09-01T05:39:35;42.80;;;11.13;;
65202;SDS011;51788;45.124;38.966;2022-09-01T05:42:03;22.30;;;10.32;;
65202;SDS011;51788;45.124;38.966;2022-09-01T05:44:33;22.73;;;10.10;;
65202;SDS011;51788;45.124;38.966;2022-09-01T05:47:09;29.23;;;10.52;;
65202;SDS011;51788;45.124;38.966;2022-09-01T05:49:37;28.13;;;10.23;;
65202;SDS011;51788;45.124;38.966;2022-09-01T05:52:06;28.15;;;9.63;;
65202;SDS011;51788;45.124;38.966;2022-09-01T05:54:35;23.33;;;9.15;;
65202;SDS011;51788;45.124;38.966;2022-09-01T05:57:02;30.45;;;10.02;;
65202;SDS011;51788;45.124;38.966;2022-09-01T05:59:29;40.15;;;12.50;;
65202;SDS011;51788;45.124;38.966;2022-09-01T06:02:11;41.90;;;11.18;;
65202;SDS011;51788;45.124;38.966;2022-09-01T06:04:37;23.52;;;9.55;;
65202;SDS011;51788;45.124;38.966;2022-09-01T06:07:16;43.30;;;9.68;;
65202;SDS011;51788;45.124;38.966;2022-09-01T06:09:48;17.70;;;9.27;;
65202;SDS011;51788;45.124;38.966;2022-09-01T06:12:17;25.67;;;8.95;;
65202;SDS011;51788;45.124;38.966;2022-09-01T06:14:49;17.15;;;9.38;;
65202;SDS011;51788;45.124;38.966;2022-09-01T06:17:18;26.30;;;10.50;;
65202;SDS011;51788;45.124;38.966;2022-09-01T06:19:50;31.00;;;9.88;;
65202;SDS011;51788;45.124;38.966;2022-09-01T06:22:18;26.13;;;9.65;;
65202;SDS011;51788;45.124;38.966;2022-09-01T06:24:45;26.38;;;8.75;;
65202;SDS011;51788;45.124;38.966;2022-09-01T06:27:13;21.58;;;9.25;;
65202;SDS011;51788;45.124;38.966;2022-09-01T06:32:18;30.65;;;9.43;;
65202;SDS011;51788;45.124;38.966;2022-09-01T06:34:45;29.20;;;9.80;;
65202;SDS011;51788;45.124;38.966;2022-09-01T06:37:16;30.17;;;10.30;;
65202;SDS011;51788;45.124;38.966;2022-09-01T06:39:48;40.83;;;10.07;;
65202;SDS011;51788;45.124;38.966;2022-09-01T06:42:15;28.15;;;9.32;;
65202;SDS011;51788;45.124;38.966;2022-09-01T06:44:48;25.42;;;9.38;;
65202;SDS011;51788;45.124;38.966;2022-09-01T06:47:14;17.17;;;8.60;;
65202;SDS011;51788;45.124;38.966;2022-09-01T06:49:40;26.52;;;10.07;;
65202;SDS011;51788;45.124;38.966;2022-09-01T06:52:12;19.45;;;9.32;;
65202;SDS011;51788;45.124;38.966;2022-09-01T06:54:40;24.20;;;8.88;;
65202;SDS011;51788;45.124;38.966;2022-09-01T06:57:08;24.52;;;9.13;;
65202;SDS011;51788;45.124;38.966;2022-09-01T06:59:34;23.60;;;9.68;;
65202;SDS011;51788;45.124;38.966;2022-09-01T07:02:03;30.35;;;9.05;;
65202;SDS011;51788;45.124;38.966;2022-09-01T07:04:41;19.65;;;8.85;;
65202;SDS011;51788;45.124;38.966;2022-09-01T07:07:08;31.65;;;9.48;;
65202;SDS011;51788;45.124;38.966;2022-09-01T07:09:58;16.95;;;8.13;;
65202;SDS011;51788;45.124;38.966;2022-09-01T07:12:36;23.05;;;9.68;;
65202;SDS011;51788;45.124;38.966;2022-09-01T07:15:06;35.88;;;8.98;;
65202;SDS011;51788;45.124;38.966;2022-09-01T07:17:33;28.33;;;8.00;;
65202;SDS011;51788;45.124;38.966;2022-09-01T07:19:59;20.48;;;8.18;;
65202;SDS011;51788;45.124;38.966;2022-09-01T07:22:25;22.83;;;7.80;;
65202;SDS011;51788;45.124;38.966;2022-09-01T07:24:51;27.38;;;8.00;;
65202;SDS011;51788;45.124;38.966;2022-09-01T07:27:42;23.83;;;7.72;;
65202;SDS011;51788;45.124;38.966;2022-09-01T07:30:17;20.33;;;7.07;;
65202;SDS011;51788;45.124;38.966;2022-09-01T07:32:45;27.20;;;8.20;;
65202;SDS011;51788;45.124;38.966;2022-09-01T07:35:13;20.52;;;7.75;;
65202;SDS011;51788;45.124;38.966;2022-09-01T07:37:42;21.83;;;7.32;;
65202;SDS011;51788;45.124;38.966;2022-09-01T07:40:11;26.25;;;7.53;;
65202;SDS011;51788;45.124;38.966;2022-09-01T07:42:54;38.10;;;8.07;;
65202;SDS011;51788;45.124;38.966;2022-09-01T07:45:54;20.08;;;7.65;;
65202;SDS011;51788;45.124;38.966;2022-09-01T07:48:24;28.98;;;8.48;;
65202;SDS011;51788;45.124;38.966;2022-09-01T07:50:53;22.70;;;7.25;;
65202;SDS011;51788;45.124;38.966;2022-09-01T07:53:23;22.20;;;7.47;;
65202;SDS011;51788;45.124;38.966;2022-09-01T07:55:58;22.15;;;7.22;;
65202;SDS011;51788;45.124;38.966;2022-09-01T07:58:26;26.92;;;7.80;;
65202;SDS011;51788;45.124;38.966;2022-09-01T08:01:00;19.58;;;7.05;;
65202;SDS011;51788;45.124;38.966;2022-09-01T08:03:31;29.95;;;7.82;;
65202;SDS011;51788;45.124;38.966;2022-09-01T08:06:01;36.97;;;8.63;;
65202;SDS011;51788;45.124;38.966;2022-09-01T08:08:31;20.23;;;7.40;;
65202;SDS011;51788;45.124;38.966;2022-09-01T08:10:58;32.05;;;7.95;;
65202;SDS011;51788;45.124;38.966;2022-09-01T08:13:25;22.23;;;7.15;;
65202;SDS011;51788;45.124;38.966;2022-09-01T08:15:51;12.25;;;7.70;;
65202;SDS011;51788;45.124;38.966;2022-09-01T08:18:18;34.10;;;8.98;;
65202;SDS011;51788;45.124;38.966;2022-09-01T08:20:45;16.13;;;6.70;;
65202;SDS011;51788;45.124;38.966;2022-09-01T08:23:22;33.13;;;8.80;;
65202;SDS011;51788;45.124;38.966;2022-09-01T08:25:51;19.10;;;7.63;;
65202;SDS011;51788;45.124;38.966;2022-09-01T08:28:18;18.92;;;6.55;;
65202;SDS011;51788;45.124;38.966;2022-09-01T08:30:45;28.05;;;7.35;;
65202;SDS011;51788;45.124;38.966;2022-09-01T08:33:14;20.80;;;6.82;;
65202;SDS011;51788;45.124;38.966;2022-09-01T08:35:45;19.60;;;6.82;;
65202;SDS011;51788;45.124;38.966;2022-09-01T08:38:14;27.95;;;7.70;;
65202;SDS011;51788;45.124;38.966;2022-09-01T08:40:41;17.20;;;7.18;;
65202;SDS011;51788;45.124;38.966;2022-09-01T08:46:25;13.70;;;6.72;;
65202;SDS011;51788;45.124;38.966;2022-09-01T08:48:56;15.43;;;6.40;;
65202;SDS011;51788;45.124;38.966;2022-09-01T08:56:40;23.60;;;6.15;;
65202;SDS011;51788;45.124;38.966;2022-09-01T08:59:09;16.50;;;5.78;;
65202;SDS011;51788;45.124;38.966;2022-09-01T09:04:46;12.23;;;6.07;;
65202;SDS011;51788;45.124;38.966;2022-09-01T09:10:35;14.95;;;5.40;;
65202;SDS011;51788;45.124;38.966;2022-09-01T09:13:32;11.32;;;5.55;;
65202;SDS011;51788;45.124;38.966;2022-09-01T09:16:20;13.98;;;6.13;;
65202;SDS011;51788;45.124;38.966;2022-09-01T09:21:32;25.35;;;5.68;;
65202;SDS011;51788;45.124;38.966;2022-09-01T09:24:07;12.30;;;5.40;;
65202;SDS011;51788;45.124;38.966;2022-09-01T09:26:37;15.73;;;6.20;;
65202;SDS011;51788;45.124;38.966;2022-09-01T09:29:03;12.55;;;7.45;;
65202;SDS011;51788;45.124;38.966;2022-09-01T09:31:36;29.58;;;8.52;;
65202;SDS011;51788;45.124;38.966;2022-09-01T09:34:18;27.08;;;8.23;;
65202;SDS011;51788;45.124;38.966;2022-09-01T09:42:34;49.08;;;7.45;;
65202;SDS011;51788;45.124;38.966;2022-09-01T09:45:21;16.73;;;6.00;;
65202;SDS011;51788;45.124;38.966;2022-09-01T09:47:49;21.70;;;6.70;;
65202;SDS011;51788;45.124;38.966;2022-09-01T09:50:18;15.07;;;6.07;;
65202;SDS011;51788;45.124;38.966;2022-09-01T09:55:54;9.70;;;5.53;;
65202;SDS011;51788;45.124;38.966;2022-09-01T09:58:25;14.20;;;5.70;;
65202;SDS011;51788;45.124;38.966;2022-09-01T10:03:34;11.73;;;5.35;;
65202;SDS011;51788;45.124;38.966;2022-09-01T10:09:13;32.88;;;6.15;;
65202;SDS011;51788;45.124;38.966;2022-09-01T10:11:43;19.77;;;5.57;;
65202;SDS011;51788;45.124;38.966;2022-09-01T10:16:44;16.13;;;4.90;;
65202;SDS011;51788;45.124;38.966;2022-09-01T10:19:17;32.35;;;5.50;;
65202;SDS011;51788;45.124;38.966;2022-09-01T10:21:44;17.40;;;6.18;;
65202;SDS011;51788;45.124;38.966;2022-09-01T10:24:18;19.38;;;5.82;;
65202;SDS011;51788;45.124;38.966;2022-09-01T10:26:55;9.38;;;4.57;;
65202;SDS011;51788;45.124;38.966;2022-09-01T10:29:31;19.40;;;6.00;;
65202;SDS011;51788;45.124;38.966;2022-09-01T10:32:02;12.82;;;5.22;;
65202;SDS011;51788;45.124;38.966;2022-09-01T10:37:01;14.38;;;5.35;;
65202;SDS011;51788;45.124;38.966;2022-09-01T10:39:28;11.10;;;4.43;;
65202;SDS011;51788;45.124;38.966;2022-09-01T10:41:55;13.25;;;5.22;;
65202;SDS011;51788;45.124;38.966;2022-09-01T10:44:24;10.63;;;4.65;;
65202;SDS011;51788;45.124;38.966;2022-09-01T10:47:11;18.17;;;5.35;;
65202;SDS011;51788;45.124;38.966;2022-09-01T10:55:30;15.38;;;5.20;;
65202;SDS011;51788;45.124;38.966;2022-09-01T11:00:47;11.32;;;5.10;;
65202;SDS011;51788;45.124;38.966;2022-09-01T11:06:05;13.10;;;4.90;;
65202;SDS011;51788;45.124;38.966;2022-09-01T11:11:05;9.52;;;5.10;;
65202;SDS011;51788;45.124;38.966;2022-09-01T11:13:41;14.52;;;4.88;;
65202;SDS011;51788;45.124;38.966;2022-09-01T11:16:32;11.20;;;5.72;;
65202;SDS011;51788;45.124;38.966;2022-09-01T11:19:23;18.95;;;5.45;;
65202;SDS011;51788;45.124;38.966;2022-09-01T11:27:05;22.23;;;5.68;;
65202;SDS011;51788;45.124;38.966;2022-09-01T11:32:41;8.48;;;4.53;;
65202;SDS011;51788;45.124;38.966;2022-09-01T11:35:18;19.63;;;4.97;;
65202;SDS011;51788;45.124;38.966;2022-09-01T11:37:47;8.88;;;4.60;;
65202;SDS011;51788;45.124;38.966;2022-09-01T11:40:28;17.65;;;5.68;;
65202;SDS011;51788;45.124;38.966;2022-09-01T11:42:56;9.25;;;4.78;;
65202;SDS011;51788;45.124;38.966;2022-09-01T11:45:30;13.73;;;4.70;;
65202;SDS011;51788;45.124;38.966;2022-09-01T11:48:02;20.08;;;4.95;;
65202;SDS011;51788;45.124;38.966;2022-09-01T11:50:37;10.18;;;4.50;;
65202;SDS011;51788;45.124;38.966;2022-09-01T11:55:34;10.73;;;4.85;;
65202;SDS011;51788;45.124;38.966;2022-09-01T11:58:01;10.07;;;4.53;;
65202;SDS011;51788;45.124;38.966;2022-09-01T12:00:38;23.67;;;5.13;;
65202;SDS011;51788;45.124;38.966;2022-09-01T12:03:23;11.63;;;4.93;;
65202;SDS011;51788;45.124;38.966;2022-09-01T12:06:12;13.13;;;4.68;;
65202;SDS011;51788;45.124;38.966;2022-09-01T12:08:42;32.15;;;5.88;;
65202;SDS011;51788;45.124;38.966;2022-09-01T12:11:22;12.80;;;4.95;;
65202;SDS011;51788;45.124;38.966;2022-09-01T12:13:55;11.38;;;5.25;;
65202;SDS011;51788;45.124;38.966;2022-09-01T12:16:24;17.65;;;6.38;;
65202;SDS011;51788;45.124;38.966;2022-09-01T12:18:52;13.85;;;5.05;;
65202;SDS011;51788;45.124;38.966;2022-09-01T12:26:48;15.48;;;4.30;;
65202;SDS011;51788;45.124;38.966;2022-09-01T12:29:23;14.90;;;4.90;;
65202;SDS011;51788;45.124;38.966;2022-09-01T12:31:50;17.92;;;5.45;;
65202;SDS011;51788;45.124;38.966;2022-09-01T12:39:48;15.45;;;6.05;;
65202;SDS011;51788;45.124;38.966;2022-09-01T12:44:52;13.65;;;4.75;;
65202;SDS011;51788;45.124;38.966;2022-09-01T12:52:48;37.22;;;5.18;;
65202;SDS011;51788;45.124;38.966;2022-09-01T12:55:24;18.42;;;5.57;;
65202;SDS011;51788;45.124;38.966;2022-09-01T13:00:23;15.18;;;5.53;;
65202;SDS011;51788;45.124;38.966;2022-09-01T13:05:39;19.43;;;5.10;;
65202;SDS011;51788;45.124;38.966;2022-09-01T13:08:17;20.80;;;5.43;;
65202;SDS011;51788;45.124;38.966;2022-09-01T13:10:51;11.02;;;4.55;;
65202;SDS011;51788;45.124;38.966;2022-09-01T13:13:19;16.80;;;5.10;;
65202;SDS011;51788;45.124;38.966;2022-09-01T13:15:55;20.13;;;4.80;;
65202;SDS011;51788;45.124;38.966;2022-09-01T13:18:28;11.57;;;5.20;;
65202;SDS011;51788;45.124;38.966;2022-09-01T13:20:55;14.15;;;5.40;;
65202;SDS011;51788;45.124;38.966;2022-09-01T13:23:22;13.57;;;5.45;;
65202;SDS011;51788;45.124;38.966;2022-09-01T13:25:48;27.20;;;5.53;;
65202;SDS011;51788;45.124;38.966;2022-09-01T13:28:15;14.70;;;5.32;;
65202;SDS011;51788;45.124;38.966;2022-09-01T13:30:43;7.82;;;4.90;;
65202;SDS011;51788;45.124;38.966;2022-09-01T13:33:12;16.70;;;5.13;;
65202;SDS011;51788;45.124;38.966;2022-09-01T13:35:38;13.00;;;4.72;;
65202;SDS011;51788;45.124;38.966;2022-09-01T13:38:04;17.05;;;5.35;;
65202;SDS011;51788;45.124;38.966;2022-09-01T13:40:30;17.63;;;5.22;;
65202;SDS011;51788;45.124;38.966;2022-09-01T13:42:57;21.70;;;4.90;;
65202;SDS011;51788;45.124;38.966;2022-09-01T13:45:23;17.50;;;4.90;;
65202;SDS011;51788;45.124;38.966;2022-09-01T13:47:50;15.98;;;5.88;;
65202;SDS011;51788;45.124;38.966;2022-09-01T13:50:18;14.35;;;4.97;;
65202;SDS011;51788;45.124;38.966;2022-09-01T13:52:49;9.13;;;4.88;;
65202;SDS011;51788;45.124;38.966;2022-09-01T13:55:17;14.13;;;5.47;;
65202;SDS011;51788;45.124;38.966;2022-09-01T13:57:46;10.27;;;5.30;;
65202;SDS011;51788;45.124;38.966;2022-09-01T14:00:13;17.00;;;5.93;;
65202;SDS011;51788;45.124;38.966;2022-09-01T14:02:42;11.02;;;4.18;;
65202;SDS011;51788;45.124;38.966;2022-09-01T14:05:14;20.85;;;5.20;;
65202;SDS011;51788;45.124;38.966;2022-09-01T14:07:44;14.88;;;4.88;;
65202;SDS011;51788;45.124;38.966;2022-09-01T14:10:11;12.63;;;4.82;;
65202;SDS011;51788;45.124;38.966;2022-09-01T14:12:38;33.03;;;5.07;;
65202;SDS011;51788;45.124;38.966;2022-09-01T14:15:07;13.25;;;5.30;;
65202;SDS011;51788;45.124;38.966;2022-09-01T14:17:35;15.77;;;4.60;;
65202;SDS011;51788;45.124;38.966;2022-09-01T14:20:03;12.25;;;5.00;;
65202;SDS011;51788;45.124;38.966;2022-09-01T14:22:37;14.48;;;5.30;;
65202;SDS011;51788;45.124;38.966;2022-09-01T14:25:07;10.65;;;4.32;;
65202;SDS011;51788;45.124;38.966;2022-09-01T14:27:35;25.27;;;5.85;;
65202;SDS011;51788;45.124;38.966;2022-09-01T14:30:02;10.98;;;4.45;;
65202;SDS011;51788;45.124;38.966;2022-09-01T14:32:30;19.23;;;4.90;;
65202;SDS011;51788;45.124;38.966;2022-09-01T14:34:56;20.48;;;6.30;;
65202;SDS011;51788;45.124;38.966;2022-09-01T14:37:23;20.15;;;5.43;;
65202;SDS011;51788;45.124;38.966;2022-09-01T14:39:50;20.92;;;5.90;;
65202;SDS011;51788;45.124;38.966;2022-09-01T14:42:17;16.98;;;4.90;;
65202;SDS011;51788;45.124;38.966;2022-09-01T14:44:44;16.77;;;4.82;;
65202;SDS011;51788;45.124;38.966;2022-09-01T14:47:11;18.45;;;5.93;;
65202;SDS011;51788;45.124;38.966;2022-09-01T14:49:38;17.90;;;5.03;;
65202;SDS011;51788;45.124;38.966;2022-09-01T14:52:04;16.55;;;5.03;;
65202;SDS011;51788;45.124;38.966;2022-09-01T14:54:33;23.23;;;6.10;;
65202;SDS011;51788;45.124;38.966;2022-09-01T14:56:59;9.30;;;5.55;;
65202;SDS011;51788;45.124;38.966;2022-09-01T14:59:26;22.85;;;6.50;;
65202;SDS011;51788;45.124;38.966;2022-09-01T15:01:52;17.08;;;6.05;;
65202;SDS011;51788;45.124;38.966;2022-09-01T15:04:18;18.10;;;6.10;;
65202;SDS011;51788;45.124;38.966;2022-09-01T15:06:44;23.67;;;7.30;;
65202;SDS011;51788;45.124;38.966;2022-09-01T15:09:10;20.33;;;6.78;;
65202;SDS011;51788;45.124;38.966;2022-09-01T15:11:36;20.88;;;7.60;;
65202;SDS011;51788;45.124;38.966;2022-09-01T15:14:02;18.67;;;6.50;;
65202;SDS011;51788;45.124;38.966;2022-09-01T15:16:28;20.42;;;6.63;;
65202;SDS011;51788;45.124;38.966;2022-09-01T15:18:54;25.85;;;7.07;;
65202;SDS011;51788;45.124;38.966;2022-09-01T15:21:25;28.23;;;7.00;;
65202;SDS011;51788;45.124;38.966;2022-09-01T15:23:54;13.65;;;6.05;;
65202;SDS011;51788;45.124;38.966;2022-09-01T15:26:21;22.10;;;5.95;;
65202;SDS011;51788;45.124;38.966;2022-09-01T15:28:47;11.93;;;6.68;;
65202;SDS011;51788;45.124;38.966;2022-09-01T15:31:14;17.33;;;6.68;;
65202;SDS011;51788;45.124;38.966;2022-09-01T15:33:42;26.00;;;9.82;;
65202;SDS011;51788;45.124;38.966;2022-09-01T15:36:12;36.53;;;12.95;;
65202;SDS011;51788;45.124;38.966;2022-09-01T15:38:43;21.75;;;7.30;;
65202;SDS011;51788;45.124;38.966;2022-09-01T15:41:14;26.45;;;13.00;;
65202;SDS011;51788;45.124;38.966;2022-09-01T15:43:42;31.10;;;11.20;;
65202;SDS011;51788;45.124;38.966;2022-09-01T15:46:08;27.10;;;10.43;;
65202;SDS011;51788;45.124;38.966;2022-09-01T15:48:34;82.38;;;32.92;;
65202;SDS011;51788;45.124;38.966;2022-09-01T15:53:48;24.40;;;9.82;;
65202;SDS011;51788;45.124;38.966;2022-09-01T15:56:15;23.73;;;8.20;;
65202;SDS011;51788;45.124;38.966;2022-09-01T15:58:48;23.27;;;9.00;;
65202;SDS011;51788;45.124;38.966;2022-09-01T16:01:15;19.92;;;7.97;;
65202;SDS011;51788;45.124;38.966;2022-09-01T16:03:42;23.88;;;8.95;;
65202;SDS011;51788;45.124;38.966;2022-09-01T16:06:09;23.13;;;7.20;;
65202;SDS011;51788;45.124;38.966;2022-09-01T16:08:35;26.77;;;6.75;;
65202;SDS011;51788;45.124;38.966;2022-09-01T16:11:05;19.35;;;6.45;;
65202;SDS011;51788;45.124;38.966;2022-09-01T16:13:34;20.25;;;7.07;;
65202;SDS011;51788;45.124;38.966;2022-09-01T16:16:06;22.40;;;7.55;;
65202;SDS011;51788;45.124;38.966;2022-09-01T16:18:57;17.98;;;7.80;;